Time;durP1;ratioP1;P1;durP2;ratioP2;P2;SDS_P1;SDS_P2;PMS_P1;PMS_P2;Temp;Humidity;BMP_temperature;BMP_pressure;BME280_temperature;BME280_humidity;BME280_pressure;Samples;Min_cycle;Max_cycle;Signal;HPM_P1;HPM_P2
2022/04/08 00:00:49;;;;;;;5.40;3.90;;;;;;;;;;4991721;28;20031;-72
2022/04/08 00:03:15;;;;;;;5.82;3.90;;;;;;;;;;4992544;28;20058;-72
2022/04/08 00:05:42;;;;;;;8.52;3.75;;;;;;;;;;4993371;28;20026;-72
2022/04/08 00:08:08;;;;;;;4.97;3.75;;;;;;;;;;4992932;28;20026;-75
2022/04/08 00:10:34;;;;;;;10.63;4.00;;;;;;;;;;4993330;28;20026;-71
2022/04/08 00:13:00;;;;;;;9.57;3.90;;;;;;;;;;4993138;28;20022;-70
2022/04/08 00:15:27;;;;;;;9.25;4.18;;;;;;;;;;4992621;28;20035;-88
2022/04/08 00:17:53;;;;;;;8.55;3.95;;;;;;;;;;4993348;28;20055;-90
2022/04/08 00:20:19;;;;;;;6.78;3.85;;;;;;;;;;4991908;28;20120;-71
2022/04/08 00:22:47;;;;;;;5.22;3.90;;;;;;;;;;4993552;28;20484;-79
2022/04/08 00:25:13;;;;;;;7.45;4.03;;;;;;;;;;4992875;28;20046;-74
2022/04/08 00:27:40;;;;;;;9.27;3.97;;;;;;;;;;4992881;28;20049;-80
2022/04/08 00:30:06;;;;;;;6.55;4.00;;;;;;;;;;4993526;28;20054;-90
2022/04/08 00:32:34;;;;;;;5.28;4.10;;;;;;;;;;4990085;28;20026;-83
2022/04/08 00:35:00;;;;;;;5.80;4.15;;;;;;;;;;4983266;28;20033;-72
2022/04/08 00:37:28;;;;;;;5.15;3.85;;;;;;;;;;4992459;28;20500;-76
2022/04/08 00:39:54;;;;;;;5.00;4.00;;;;;;;;;;4992825;28;20527;-73
2022/04/08 00:42:20;;;;;;;5.03;4.05;;;;;;;;;;4992796;28;20028;-89
2022/04/08 00:44:46;;;;;;;6.18;3.78;;;;;;;;;;4992456;28;20059;-71
2022/04/08 00:47:13;;;;;;;5.95;3.92;;;;;;;;;;4992774;28;20062;-72
2022/04/08 00:49:39;;;;;;;7.07;4.03;;;;;;;;;;4991779;28;20061;-83
2022/04/08 00:52:05;;;;;;;4.88;3.58;;;;;;;;;;4992590;28;20437;-72
2022/04/08 00:54:32;;;;;;;5.97;3.95;;;;;;;;;;4993061;28;20022;-76
2022/04/08 00:56:58;;;;;;;7.75;4.00;;;;;;;;;;4991219;28;20026;-71
2022/04/08 00:59:26;;;;;;;5.93;3.80;;;;;;;;;;4992271;28;20042;-84
2022/04/08 01:01:52;;;;;;;5.47;4.03;;;;;;;;;;4992881;28;20027;-90
2022/04/08 01:04:21;;;;;;;7.78;4.10;;;;;;;;;;4992723;28;20030;-86
2022/04/08 01:06:47;;;;;;;7.10;4.00;;;;;;;;;;4992725;28;20073;-90
2022/04/08 01:09:13;;;;;;;5.22;3.90;;;;;;;;;;4993366;28;20022;-91
2022/04/08 01:11:39;;;;;;;5.60;4.43;;;;;;;;;;4992084;28;20026;-78
2022/04/08 01:14:14;;;;;;;5.10;4.00;;;;;;;;;;4996078;28;20035;-90
2022/04/08 01:16:40;;;;;;;6.85;4.25;;;;;;;;;;4996190;28;20069;-87
2022/04/08 01:19:06;;;;;;;6.40;4.30;;;;;;;;;;4995550;28;20451;-89
2022/04/08 01:21:33;;;;;;;6.20;4.18;;;;;;;;;;4994943;28;20109;-72
2022/04/08 01:24:01;;;;;;;5.90;4.22;;;;;;;;;;4996122;28;20530;-73
2022/04/08 01:26:28;;;;;;;8.07;4.65;;;;;;;;;;4996115;28;20035;-91
2022/04/08 01:28:55;;;;;;;5.00;3.85;;;;;;;;;;4998073;28;20050;-90
2022/04/08 01:31:23;;;;;;;7.65;4.20;;;;;;;;;;4995514;28;20030;-89
2022/04/08 01:33:50;;;;;;;8.45;4.40;;;;;;;;;;4995039;28;20081;-89
2022/04/08 01:36:16;;;;;;;6.90;4.50;;;;;;;;;;4995990;28;20023;-70
2022/04/08 01:38:42;;;;;;;6.05;4.00;;;;;;;;;;4996020;28;20117;-89
2022/04/08 01:41:10;;;;;;;5.97;4.10;;;;;;;;;;4996430;28;20026;-87
2022/04/08 01:43:36;;;;;;;6.30;4.00;;;;;;;;;;4995925;28;20547;-90
2022/04/08 01:46:05;;;;;;;7.82;4.50;;;;;;;;;;4995678;28;20534;-89
2022/04/08 01:48:31;;;;;;;8.57;4.35;;;;;;;;;;4994752;28;20037;-87
2022/04/08 01:50:57;;;;;;;6.85;3.78;;;;;;;;;;4995362;28;20022;-89
2022/04/08 01:53:23;;;;;;;9.13;4.53;;;;;;;;;;4996100;28;20054;-86
2022/04/08 01:55:49;;;;;;;5.30;3.75;;;;;;;;;;4996186;28;20023;-89
2022/04/08 01:58:15;;;;;;;6.25;3.80;;;;;;;;;;4995474;28;20036;-71
2022/04/08 02:00:41;;;;;;;5.05;3.75;;;;;;;;;;4994751;28;20041;-75
2022/04/08 02:03:07;;;;;;;5.30;3.85;;;;;;;;;;4994340;28;20033;-71
2022/04/08 02:05:33;;;;;;;5.03;3.72;;;;;;;;;;4994499;28;20089;-70
2022/04/08 02:07:59;;;;;;;4.85;3.88;;;;;;;;;;4994891;28;20113;-71
2022/04/08 02:10:26;;;;;;;5.72;3.88;;;;;;;;;;4994669;28;20022;-70
2022/04/08 02:12:52;;;;;;;5.32;3.80;;;;;;;;;;4995239;28;20037;-72
2022/04/08 02:15:26;;;;;;;5.68;3.85;;;;;;;;;;4994666;28;20038;-69
2022/04/08 02:17:52;;;;;;;5.20;3.75;;;;;;;;;;4994921;28;20399;-71
2022/04/08 02:20:18;;;;;;;5.05;3.88;;;;;;;;;;4994808;28;20033;-70
2022/04/08 02:22:44;;;;;;;5.63;3.78;;;;;;;;;;4994786;28;20062;-81
2022/04/08 02:25:11;;;;;;;6.80;3.67;;;;;;;;;;4995160;28;20045;-89
2022/04/08 02:27:37;;;;;;;3.88;3.47;;;;;;;;;;4994829;28;20029;-88
2022/04/08 02:30:04;;;;;;;8.25;4.03;;;;;;;;;;4995580;28;20023;-91
2022/04/08 02:32:30;;;;;;;7.70;3.70;;;;;;;;;;4994845;28;20029;-90
2022/04/08 02:34:56;;;;;;;6.32;3.88;;;;;;;;;;4994582;28;20053;-70
2022/04/08 02:37:22;;;;;;;6.47;3.70;;;;;;;;;;4995092;28;20030;-89
2022/04/08 02:39:48;;;;;;;6.45;3.88;;;;;;;;;;4995567;28;20058;-89
2022/04/08 02:42:14;;;;;;;5.40;3.60;;;;;;;;;;4993858;28;20041;-89
2022/04/08 02:44:40;;;;;;;5.10;3.67;;;;;;;;;;4994758;28;20050;-73
2022/04/08 02:47:06;;;;;;;5.13;3.75;;;;;;;;;;4994505;28;20046;-87
2022/04/08 02:49:32;;;;;;;6.10;4.10;;;;;;;;;;4993388;28;20569;-89
2022/04/08 02:51:58;;;;;;;5.10;3.72;;;;;;;;;;4994777;28;20031;-86
2022/04/08 02:54:24;;;;;;;5.38;3.45;;;;;;;;;;4994104;28;20029;-71
2022/04/08 02:56:50;;;;;;;5.30;3.72;;;;;;;;;;4994276;28;20034;-91
2022/04/08 02:59:16;;;;;;;5.88;3.67;;;;;;;;;;4993435;28;20094;-81
2022/04/08 03:01:42;;;;;;;5.35;3.72;;;;;;;;;;4993703;28;20030;-70
2022/04/08 03:04:09;;;;;;;6.97;3.92;;;;;;;;;;4993929;28;20036;-72
2022/04/08 03:06:36;;;;;;;6.07;3.85;;;;;;;;;;4993683;28;20447;-70
2022/04/08 03:09:05;;;;;;;6.32;3.58;;;;;;;;;;4993880;28;20150;-72
2022/04/08 03:11:32;;;;;;;5.72;3.60;;;;;;;;;;4993898;28;20022;-72
2022/04/08 03:14:02;;;;;;;7.93;3.85;;;;;;;;;;4992400;28;20038;-70
2022/04/08 03:16:29;;;;;;;8.05;3.70;;;;;;;;;;4993221;28;20030;-69
2022/04/08 03:18:55;;;;;;;7.72;3.92;;;;;;;;;;4993169;28;20041;-83
2022/04/08 03:21:21;;;;;;;7.28;3.83;;;;;;;;;;4993526;28;20030;-74
2022/04/08 03:23:48;;;;;;;9.73;3.80;;;;;;;;;;4994143;28;20379;-78
2022/04/08 03:26:14;;;;;;;7.10;3.80;;;;;;;;;;4993477;28;20038;-81
2022/04/08 03:28:40;;;;;;;6.53;3.80;;;;;;;;;;4987883;28;20027;-71
2022/04/08 03:31:06;;;;;;;4.85;3.85;;;;;;;;;;4993739;28;20033;-74
2022/04/08 03:33:32;;;;;;;4.90;3.60;;;;;;;;;;4993309;28;20380;-86
2022/04/08 03:35:58;;;;;;;5.40;3.60;;;;;;;;;;4992856;28;20109;-73
2022/04/08 03:38:24;;;;;;;7.07;3.72;;;;;;;;;;4992215;28;20034;-69
2022/04/08 03:40:50;;;;;;;6.55;3.70;;;;;;;;;;4989840;28;20034;-75
2022/04/08 03:43:18;;;;;;;5.93;3.55;;;;;;;;;;4994044;28;20027;-78
2022/04/08 03:45:44;;;;;;;8.23;3.90;;;;;;;;;;4994365;28;20412;-71
2022/04/08 03:48:10;;;;;;;4.43;3.50;;;;;;;;;;4992190;28;20427;-74
2022/04/08 03:50:36;;;;;;;7.03;3.85;;;;;;;;;;4993296;28;20062;-80
2022/04/08 03:53:02;;;;;;;4.72;3.63;;;;;;;;;;4994185;28;20049;-70
2022/04/08 03:55:28;;;;;;;7.13;3.72;;;;;;;;;;4991840;28;20026;-70
2022/04/08 03:57:54;;;;;;;4.40;3.60;;;;;;;;;;4990695;28;20030;-70
2022/04/08 04:00:21;;;;;;;5.57;3.95;;;;;;;;;;4993302;28;20026;-71
2022/04/08 04:02:47;;;;;;;6.93;3.75;;;;;;;;;;4992131;28;20034;-71
2022/04/08 04:05:13;;;;;;;5.70;3.80;;;;;;;;;;4993073;28;20065;-71
2022/04/08 04:07:39;;;;;;;6.15;3.97;;;;;;;;;;4990590;28;20038;-70
2022/04/08 04:10:05;;;;;;;7.10;4.40;;;;;;;;;;4984439;28;20100;-74
2022/04/08 04:12:31;;;;;;;6.32;3.97;;;;;;;;;;4990887;28;20026;-75
2022/04/08 04:14:58;;;;;;;6.72;4.35;;;;;;;;;;4993728;28;20061;-74
2022/04/08 04:17:24;;;;;;;7.47;3.85;;;;;;;;;;4993190;28;20022;-75
2022/04/08 04:19:50;;;;;;;7.35;4.22;;;;;;;;;;4990796;28;20026;-71
2022/04/08 04:22:17;;;;;;;7.22;4.22;;;;;;;;;;4988790;28;20391;-71
2022/04/08 04:24:43;;;;;;;6.88;4.07;;;;;;;;;;4992004;28;20563;-72
2022/04/08 04:27:09;;;;;;;6.65;4.63;;;;;;;;;;4989103;28;20034;-80
2022/04/08 04:29:35;;;;;;;9.27;5.22;;;;;;;;;;4992070;28;20038;-80
2022/04/08 04:32:05;;;;;;;12.93;4.75;;;;;;;;;;4991986;28;20042;-80
2022/04/08 04:34:33;;;;;;;6.88;4.30;;;;;;;;;;4990004;28;20493;-77
2022/04/08 04:36:59;;;;;;;6.88;4.30;;;;;;;;;;4990724;28;20121;-74
2022/04/08 04:39:25;;;;;;;5.90;4.35;;;;;;;;;;4991131;28;20117;-84
2022/04/08 04:41:51;;;;;;;6.70;4.05;;;;;;;;;;4992214;28;20018;-84
2022/04/08 04:44:17;;;;;;;5.70;3.72;;;;;;;;;;4988701;28;20030;-78
2022/04/08 04:46:43;;;;;;;7.85;4.47;;;;;;;;;;4984025;28;20042;-74
2022/04/08 04:49:10;;;;;;;7.50;3.92;;;;;;;;;;4994159;28;20023;-75
2022/04/08 04:51:36;;;;;;;9.52;4.30;;;;;;;;;;4995062;28;20073;-73
2022/04/08 04:54:02;;;;;;;6.88;4.47;;;;;;;;;;4996524;28;20021;-75
2022/04/08 04:56:28;;;;;;;7.28;4.28;;;;;;;;;;4994600;28;20041;-72
2022/04/08 04:58:55;;;;;;;8.23;4.25;;;;;;;;;;4995602;28;20026;-72
2022/04/08 05:01:21;;;;;;;9.80;4.35;;;;;;;;;;4993498;28;20034;-76
2022/04/08 05:03:47;;;;;;;6.85;4.20;;;;;;;;;;4995045;28;20026;-73
2022/04/08 05:06:13;;;;;;;5.75;3.70;;;;;;;;;;4995419;28;20180;-70
2022/04/08 05:08:39;;;;;;;7.20;3.80;;;;;;;;;;4994320;28;20038;-83
2022/04/08 05:11:05;;;;;;;6.88;4.00;;;;;;;;;;5000322;28;20058;-74
2022/04/08 05:13:33;;;;;;;5.80;3.60;;;;;;;;;;4994153;28;20026;-73
2022/04/08 05:16:02;;;;;;;6.18;3.33;;;;;;;;;;4989917;28;20112;-71
2022/04/08 05:18:28;;;;;;;4.97;3.15;;;;;;;;;;4993954;28;20022;-76
2022/04/08 05:20:54;;;;;;;5.22;3.80;;;;;;;;;;4991352;28;20022;-77
2022/04/08 05:23:20;;;;;;;6.05;3.50;;;;;;;;;;4993765;28;20026;-74
2022/04/08 05:25:46;;;;;;;8.20;3.40;;;;;;;;;;4994637;28;20511;-71
2022/04/08 05:28:13;;;;;;;8.68;3.45;;;;;;;;;;4986783;28;20054;-72
2022/04/08 05:30:39;;;;;;;4.95;3.10;;;;;;;;;;4994007;28;20062;-75
2022/04/08 05:33:05;;;;;;;7.65;3.22;;;;;;;;;;4994405;28;20039;-72
2022/04/08 05:35:31;;;;;;;6.10;3.53;;;;;;;;;;4992222;28;20023;-71
2022/04/08 05:37:57;;;;;;;5.13;3.22;;;;;;;;;;4998350;28;20034;-75
2022/04/08 05:40:24;;;;;;;5.13;3.42;;;;;;;;;;4994169;28;20018;-73
2022/04/08 05:42:50;;;;;;;7.70;3.42;;;;;;;;;;4995286;28;20034;-73
2022/04/08 05:45:18;;;;;;;7.72;3.60;;;;;;;;;;4993562;28;20113;-71
2022/04/08 05:47:47;;;;;;;7.20;3.78;;;;;;;;;;4994481;28;20026;-72
2022/04/08 05:50:13;;;;;;;7.30;3.67;;;;;;;;;;4991874;28;20424;-71
2022/04/08 05:52:40;;;;;;;5.57;3.40;;;;;;;;;;4990968;28;20030;-74
2022/04/08 05:55:06;;;;;;;7.45;3.55;;;;;;;;;;4988619;28;20121;-81
2022/04/08 05:57:36;;;;;;;8.57;3.50;;;;;;;;;;4990530;28;20019;-76
2022/04/08 06:00:03;;;;;;;6.55;3.45;;;;;;;;;;4994161;28;20030;-70
2022/04/08 06:02:30;;;;;;;14.55;4.35;;;;;;;;;;4991387;28;20023;-72
2022/04/08 06:04:56;;;;;;;5.32;3.28;;;;;;;;;;4993757;28;20158;-71
2022/04/08 06:07:25;;;;;;;6.13;3.55;;;;;;;;;;4992508;28;20030;-71
2022/04/08 06:09:51;;;;;;;9.70;5.38;;;;;;;;;;4995643;28;20035;-75
2022/04/08 06:12:17;;;;;;;6.90;3.60;;;;;;;;;;4993844;28;20558;-73
2022/04/08 06:14:43;;;;;;;7.78;3.40;;;;;;;;;;4989414;28;20495;-72
2022/04/08 06:17:09;;;;;;;5.22;3.47;;;;;;;;;;4994534;28;20145;-74
2022/04/08 06:19:35;;;;;;;5.97;3.53;;;;;;;;;;4991408;28;20022;-71
2022/04/08 06:22:01;;;;;;;10.68;3.53;;;;;;;;;;4995825;28;20040;-69
2022/04/08 06:24:27;;;;;;;12.27;3.92;;;;;;;;;;4993321;28;20375;-69
2022/04/08 06:26:54;;;;;;;5.55;3.20;;;;;;;;;;4993813;28;20448;-72
2022/04/08 06:29:20;;;;;;;5.47;3.17;;;;;;;;;;4993482;28;20028;-72
2022/04/08 06:31:46;;;;;;;7.35;3.30;;;;;;;;;;4994265;28;20509;-71
2022/04/08 06:34:12;;;;;;;6.10;3.50;;;;;;;;;;4994685;28;20026;-70
2022/04/08 06:36:38;;;;;;;9.07;3.30;;;;;;;;;;4994385;28;20034;-70
2022/04/08 06:39:05;;;;;;;8.73;3.53;;;;;;;;;;4993769;28;20065;-71
2022/04/08 06:41:33;;;;;;;12.45;3.40;;;;;;;;;;4992770;28;20022;-76
2022/04/08 06:44:00;;;;;;;10.07;3.38;;;;;;;;;;4994119;28;20025;-72
2022/04/08 06:46:26;;;;;;;5.88;3.20;;;;;;;;;;4994228;28;20058;-71
2022/04/08 06:48:52;;;;;;;5.55;3.22;;;;;;;;;;4992661;28;20399;-78
2022/04/08 06:51:18;;;;;;;9.13;3.58;;;;;;;;;;4976921;28;20033;-76
2022/04/08 06:53:44;;;;;;;7.05;3.63;;;;;;;;;;4993047;28;20022;-74
2022/04/08 06:56:10;;;;;;;8.30;3.85;;;;;;;;;;4991261;28;20395;-76
2022/04/08 06:58:39;;;;;;;7.38;3.42;;;;;;;;;;4991736;28;20427;-70
2022/04/08 07:01:06;;;;;;;6.47;3.60;;;;;;;;;;4993812;28;20089;-72
2022/04/08 07:03:33;;;;;;;9.50;3.60;;;;;;;;;;4989857;28;20041;-74
2022/04/08 07:05:59;;;;;;;7.38;3.40;;;;;;;;;;4992349;28;20120;-75
2022/04/08 07:08:25;;;;;;;6.18;3.22;;;;;;;;;;4992302;28;20380;-74
2022/04/08 07:10:51;;;;;;;6.00;3.33;;;;;;;;;;4992763;28;20424;-77
2022/04/08 07:13:17;;;;;;;8.18;3.40;;;;;;;;;;4986031;28;20488;-75
2022/04/08 07:15:43;;;;;;;4.82;3.25;;;;;;;;;;4989785;28;20034;-73
2022/04/08 07:18:09;;;;;;;7.22;3.25;;;;;;;;;;4991429;28;20022;-71
2022/04/08 07:20:35;;;;;;;7.63;3.70;;;;;;;;;;4993797;28;20074;-80
2022/04/08 07:23:03;;;;;;;7.05;3.78;;;;;;;;;;4991839;28;20030;-72
2022/04/08 07:25:29;;;;;;;7.00;3.50;;;;;;;;;;4989808;28;20491;-71
2022/04/08 07:27:56;;;;;;;8.30;3.95;;;;;;;;;;4990673;28;20073;-70
2022/04/08 07:30:23;;;;;;;9.95;3.50;;;;;;;;;;4992025;28;20058;-68
2022/04/08 07:32:54;;;;;;;7.78;3.90;;;;;;;;;;4990839;28;20109;-70
2022/04/08 07:35:20;;;;;;;10.27;3.60;;;;;;;;;;4987509;28;20019;-70
2022/04/08 07:37:46;;;;;;;8.23;3.42;;;;;;;;;;4988654;28;20113;-76
2022/04/08 07:40:13;;;;;;;5.57;3.28;;;;;;;;;;4992699;28;20258;-74
2022/04/08 07:42:39;;;;;;;6.25;3.28;;;;;;;;;;4988706;28;20057;-76
2022/04/08 07:45:06;;;;;;;8.50;3.80;;;;;;;;;;4988198;28;20058;-74
2022/04/08 07:47:32;;;;;;;7.38;3.60;;;;;;;;;;4993863;28;20070;-73
2022/04/08 07:50:03;;;;;;;6.05;3.83;;;;;;;;;;4992474;28;20022;-68
2022/04/08 07:52:29;;;;;;;9.15;3.70;;;;;;;;;;4993135;28;20022;-71
2022/04/08 07:54:55;;;;;;;9.07;3.45;;;;;;;;;;4988957;28;20035;-72
2022/04/08 07:57:22;;;;;;;6.88;3.78;;;;;;;;;;4993648;28;20085;-73
2022/04/08 07:59:48;;;;;;;9.68;3.67;;;;;;;;;;4993509;28;20031;-70
2022/04/08 08:02:15;;;;;;;5.90;3.30;;;;;;;;;;4993270;28;20019;-67
2022/04/08 08:04:41;;;;;;;6.88;3.38;;;;;;;;;;4993339;28;20031;-73
2022/04/08 08:07:07;;;;;;;7.95;3.70;;;;;;;;;;4992919;28;20387;-70
2022/04/08 08:09:33;;;;;;;8.95;3.40;;;;;;;;;;4993539;28;20500;-69
2022/04/08 08:12:02;;;;;;;9.75;3.72;;;;;;;;;;4993481;28;20124;-69
2022/04/08 08:14:28;;;;;;;6.75;3.80;;;;;;;;;;4990669;28;20080;-75
2022/04/08 08:16:54;;;;;;;6.20;3.30;;;;;;;;;;4985757;28;20043;-68
2022/04/08 08:19:20;;;;;;;8.40;3.60;;;;;;;;;;4993140;28;20105;-69
2022/04/08 08:21:46;;;;;;;8.45;3.45;;;;;;;;;;4996169;28;20018;-69
2022/04/08 08:24:13;;;;;;;7.95;3.50;;;;;;;;;;4997113;28;20033;-71
2022/04/08 08:26:39;;;;;;;10.90;3.63;;;;;;;;;;4997459;28;20399;-69
2022/04/08 08:29:05;;;;;;;11.43;3.92;;;;;;;;;;5002681;28;20097;-68
2022/04/08 08:31:31;;;;;;;12.30;3.63;;;;;;;;;;4994296;28;20034;-68
2022/04/08 08:33:57;;;;;;;12.80;4.20;;;;;;;;;;4997232;28;20046;-69
2022/04/08 08:36:23;;;;;;;15.75;3.65;;;;;;;;;;4996616;28;20038;-69
2022/04/08 08:38:49;;;;;;;11.70;3.63;;;;;;;;;;4996043;28;20480;-74
2022/04/08 08:41:18;;;;;;;7.75;3.65;;;;;;;;;;4996839;28;20435;-69
2022/04/08 08:43:45;;;;;;;6.97;3.58;;;;;;;;;;4997081;28;20449;-73
2022/04/08 08:46:12;;;;;;;14.23;4.00;;;;;;;;;;4995733;28;20060;-67
2022/04/08 08:48:38;;;;;;;8.05;3.47;;;;;;;;;;4994135;28;20022;-69
2022/04/08 08:51:06;;;;;;;8.40;3.60;;;;;;;;;;4996756;28;20057;-73
2022/04/08 08:53:33;;;;;;;6.25;3.70;;;;;;;;;;4987236;28;20380;-68
2022/04/08 08:55:59;;;;;;;6.68;3.53;;;;;;;;;;4979291;28;20073;-69
2022/04/08 08:58:26;;;;;;;6.18;3.10;;;;;;;;;;4997021;28;20022;-68
2022/04/08 09:00:52;;;;;;;8.80;3.70;;;;;;;;;;4996215;28;20034;-69
2022/04/08 09:03:18;;;;;;;12.20;3.45;;;;;;;;;;4996983;28;20068;-73
2022/04/08 09:05:45;;;;;;;12.15;3.60;;;;;;;;;;4994423;28;20034;-75
2022/04/08 09:08:12;;;;;;;7.30;3.63;;;;;;;;;;4995259;28;20026;-69
2022/04/08 09:10:42;;;;;;;7.85;3.53;;;;;;;;;;4996527;28;20125;-70
2022/04/08 09:13:09;;;;;;;13.35;3.78;;;;;;;;;;4996487;28;20022;-69
2022/04/08 09:15:37;;;;;;;7.57;3.50;;;;;;;;;;4995717;28;20031;-69
2022/04/08 09:18:15;;;;;;;7.60;3.60;;;;;;;;;;4984876;28;20031;-73
2022/04/08 09:20:42;;;;;;;9.85;3.97;;;;;;;;;;4996358;28;20022;-69
2022/04/08 09:23:08;;;;;;;10.60;3.75;;;;;;;;;;4996411;28;20037;-68
2022/04/08 09:25:35;;;;;;;12.18;4.00;;;;;;;;;;4996335;28;20022;-69
2022/04/08 09:28:11;;;;;;;7.13;3.42;;;;;;;;;;4995613;28;20381;-68
2022/04/08 09:30:37;;;;;;;12.55;3.60;;;;;;;;;;4995788;28;20048;-69
2022/04/08 09:33:16;;;;;;;5.90;3.20;;;;;;;;;;4995475;28;20333;-69
2022/04/08 09:35:43;;;;;;;7.57;3.75;;;;;;;;;;4996085;28;20046;-75
2022/04/08 09:38:09;;;;;;;6.70;3.70;;;;;;;;;;4995522;28;20033;-68
2022/04/08 09:40:36;;;;;;;6.90;3.50;;;;;;;;;;4995748;28;20488;-71
2022/04/08 09:43:03;;;;;;;8.63;3.63;;;;;;;;;;4995544;28;20534;-73
2022/04/08 09:45:30;;;;;;;7.03;3.00;;;;;;;;;;4986936;28;20129;-70
2022/04/08 09:48:03;;;;;;;7.75;3.30;;;;;;;;;;4995576;28;20471;-72
2022/04/08 09:50:29;;;;;;;6.50;3.40;;;;;;;;;;4995332;28;20432;-70
2022/04/08 09:52:56;;;;;;;8.77;4.05;;;;;;;;;;4995706;28;20042;-70
2022/04/08 09:55:23;;;;;;;6.07;3.22;;;;;;;;;;5010380;28;20049;-69
2022/04/08 09:57:53;;;;;;;7.20;3.25;;;;;;;;;;4995195;28;20026;-70
2022/04/08 10:00:19;;;;;;;6.30;3.85;;;;;;;;;;4995242;28;20157;-71
2022/04/08 10:02:45;;;;;;;6.13;3.10;;;;;;;;;;4995261;28;20019;-71
2022/04/08 10:05:12;;;;;;;9.65;3.22;;;;;;;;;;4995581;28;20023;-70
2022/04/08 10:07:41;;;;;;;9.27;3.50;;;;;;;;;;4992384;28;20481;-69
2022/04/08 10:10:13;;;;;;;10.18;3.35;;;;;;;;;;4987198;28;20034;-71
2022/04/08 10:12:44;;;;;;;8.02;3.33;;;;;;;;;;4994126;28;20056;-71
2022/04/08 10:15:15;;;;;;;14.48;4.68;;;;;;;;;;4995664;28;20040;-70
2022/04/08 10:17:41;;;;;;;8.20;3.40;;;;;;;;;;4993350;28;20038;-73
2022/04/08 10:20:20;;;;;;;13.57;3.80;;;;;;;;;;4991966;28;20026;-84
2022/04/08 10:22:47;;;;;;;11.10;3.42;;;;;;;;;;4998243;28;20038;-75
2022/04/08 10:25:17;;;;;;;9.65;3.58;;;;;;;;;;4998293;28;20375;-77
2022/04/08 10:27:44;;;;;;;7.63;3.53;;;;;;;;;;4984220;28;20174;-79
2022/04/08 10:30:11;;;;;;;8.65;3.47;;;;;;;;;;4992610;28;20505;-80
2022/04/08 10:32:38;;;;;;;10.35;4.38;;;;;;;;;;4985646;28;20074;-71
2022/04/08 10:35:13;;;;;;;11.80;4.30;;;;;;;;;;4980955;28;20030;-73
2022/04/08 10:37:39;;;;;;;13.88;4.57;;;;;;;;;;4978667;28;20034;-80
2022/04/08 10:40:09;;;;;;;11.90;4.30;;;;;;;;;;4980535;28;20101;-76
2022/04/08 10:42:35;;;;;;;9.27;4.28;;;;;;;;;;4977332;28;20110;-79
2022/04/08 10:45:14;;;;;;;11.13;4.13;;;;;;;;;;4979782;28;20125;-79
2022/04/08 10:47:47;;;;;;;17.10;4.32;;;;;;;;;;4984727;28;20027;-77
2022/04/08 10:50:23;;;;;;;11.80;4.70;;;;;;;;;;4997593;28;20045;-83
2022/04/08 10:52:49;;;;;;;10.55;4.07;;;;;;;;;;4994284;28;20026;-81
2022/04/08 10:55:15;;;;;;;9.02;3.75;;;;;;;;;;4993076;28;20052;-76
2022/04/08 10:57:46;;;;;;;9.13;3.85;;;;;;;;;;4991697;28;20128;-75
2022/04/08 11:00:17;;;;;;;10.57;3.95;;;;;;;;;;4993114;28;20030;-74
2022/04/08 11:02:43;;;;;;;11.27;4.20;;;;;;;;;;4991741;28;20587;-75
2022/04/08 11:05:13;;;;;;;11.70;3.88;;;;;;;;;;4991803;28;20030;-74
2022/04/08 11:07:46;;;;;;;14.80;4.45;;;;;;;;;;4989043;28;20035;-76
2022/04/08 11:10:13;;;;;;;9.63;3.72;;;;;;;;;;4997567;28;20062;-72
2022/04/08 11:12:48;;;;;;;8.32;3.03;;;;;;;;;;4992642;28;20034;-81
2022/04/08 11:15:15;;;;;;;9.77;4.00;;;;;;;;;;4990601;28;20150;-73
2022/04/08 11:17:41;;;;;;;12.57;4.20;;;;;;;;;;4992569;28;20038;-75
2022/04/08 11:20:17;;;;;;;10.77;3.70;;;;;;;;;;4991476;28;20019;-79
2022/04/08 11:22:44;;;;;;;11.98;3.80;;;;;;;;;;4991886;28;20072;-79
2022/04/08 11:25:19;;;;;;;8.43;3.70;;;;;;;;;;4986741;28;20030;-75
2022/04/08 11:27:45;;;;;;;8.27;3.83;;;;;;;;;;4990550;28;21584;-73
2022/04/08 11:30:11;;;;;;;7.53;3.38;;;;;;;;;;4988912;28;20154;-74
2022/04/08 11:32:39;;;;;;;9.20;3.80;;;;;;;;;;4987937;28;20085;-70
2022/04/08 11:35:12;;;;;;;9.77;4.07;;;;;;;;;;4993485;28;20484;-73
2022/04/08 11:37:38;;;;;;;11.00;4.45;;;;;;;;;;4992824;28;20046;-71
2022/04/08 11:40:04;;;;;;;11.35;4.28;;;;;;;;;;4993735;28;20054;-70
2022/04/08 11:42:31;;;;;;;17.17;10.18;;;;;;;;;;4992813;28;20121;-72
2022/04/08 11:44:57;;;;;;;10.32;4.32;;;;;;;;;;4990552;28;20463;-71
2022/04/08 11:47:31;;;;;;;12.05;4.07;;;;;;;;;;4982280;28;20050;-75
2022/04/08 11:50:07;;;;;;;20.23;4.63;;;;;;;;;;4975650;28;20151;-71
2022/04/08 11:52:34;;;;;;;10.68;4.28;;;;;;;;;;4978581;28;20034;-70
2022/04/08 11:55:06;;;;;;;11.60;3.70;;;;;;;;;;4974099;28;20027;-69
2022/04/08 11:57:33;;;;;;;18.83;4.43;;;;;;;;;;4976380;28;20113;-69
2022/04/08 12:00:01;;;;;;;9.35;3.88;;;;;;;;;;4977411;28;20027;-71
2022/04/08 12:02:29;;;;;;;10.10;3.75;;;;;;;;;;4976062;28;20027;-71
2022/04/08 12:04:55;;;;;;;10.55;3.72;;;;;;;;;;4978701;28;20026;-70
2022/04/08 12:07:29;;;;;;;9.15;3.80;;;;;;;;;;4974232;28;20038;-69
2022/04/08 12:09:56;;;;;;;7.07;3.42;;;;;;;;;;4979084;28;20030;-69
2022/04/08 12:12:24;;;;;;;10.70;3.90;;;;;;;;;;4973979;28;20018;-68
2022/04/08 12:14:50;;;;;;;8.57;3.65;;;;;;;;;;4974595;28;20030;-71
2022/04/08 12:17:18;;;;;;;12.85;4.10;;;;;;;;;;4977827;28;20039;-72
2022/04/08 12:19:47;;;;;;;9.13;3.83;;;;;;;;;;4977690;28;20078;-71
2022/04/08 12:22:14;;;;;;;10.13;3.80;;;;;;;;;;4978148;28;20046;-73
2022/04/08 12:24:42;;;;;;;11.15;3.70;;;;;;;;;;4973051;28;20043;-71
2022/04/08 12:27:23;;;;;;;9.68;3.60;;;;;;;;;;4976752;28;20030;-71
2022/04/08 12:30:02;;;;;;;6.78;3.28;;;;;;;;;;4977506;28;20034;-70
2022/04/08 12:32:37;;;;;;;12.23;4.05;;;;;;;;;;4978395;28;20045;-70
2022/04/08 12:35:06;;;;;;;9.13;3.30;;;;;;;;;;4973795;28;20015;-71
2022/04/08 12:37:33;;;;;;;10.35;4.13;;;;;;;;;;4976688;28;20081;-71
2022/04/08 12:39:59;;;;;;;9.93;3.60;;;;;;;;;;4992566;28;20019;-72
2022/04/08 12:42:25;;;;;;;8.07;3.70;;;;;;;;;;4992469;28;20102;-71
2022/04/08 12:44:51;;;;;;;8.57;3.40;;;;;;;;;;4991860;28;20046;-72
2022/04/08 12:47:17;;;;;;;6.40;3.30;;;;;;;;;;4992293;28;20026;-73
2022/04/08 12:49:44;;;;;;;9.90;3.80;;;;;;;;;;4992256;28;20113;-71
2022/04/08 12:52:10;;;;;;;8.48;3.33;;;;;;;;;;4992269;28;20022;-71
2022/04/08 12:54:36;;;;;;;10.98;3.70;;;;;;;;;;4992650;28;20026;-71
2022/04/08 12:57:02;;;;;;;12.07;3.90;;;;;;;;;;4990085;28;20030;-70
2022/04/08 12:59:28;;;;;;;8.52;3.30;;;;;;;;;;4984422;28;20038;-70
2022/04/08 13:01:54;;;;;;;10.40;4.18;;;;;;;;;;4979128;28;20567;-74
2022/04/08 13:04:20;;;;;;;7.97;3.40;;;;;;;;;;4992600;28;20034;-71
2022/04/08 13:06:46;;;;;;;11.02;3.72;;;;;;;;;;4992441;28;20162;-72
2022/04/08 13:09:14;;;;;;;13.52;4.05;;;;;;;;;;4998518;28;20022;-72
2022/04/08 13:11:42;;;;;;;8.73;3.95;;;;;;;;;;4996061;28;20158;-74
2022/04/08 13:14:08;;;;;;;7.10;3.38;;;;;;;;;;4995266;28;20468;-74
2022/04/08 13:16:35;;;;;;;8.13;3.08;;;;;;;;;;4996008;28;20046;-73
2022/04/08 13:19:01;;;;;;;6.22;3.15;;;;;;;;;;4995921;28;20018;-70
2022/04/08 13:21:27;;;;;;;23.70;4.40;;;;;;;;;;4989737;28;20076;-77
2022/04/08 13:23:53;;;;;;;11.80;4.00;;;;;;;;;;4999865;28;20049;-77
2022/04/08 13:26:20;;;;;;;11.07;3.67;;;;;;;;;;4992025;28;20027;-74
2022/04/08 13:28:46;;;;;;;16.35;4.50;;;;;;;;;;4994929;28;20022;-77
2022/04/08 13:31:12;;;;;;;9.10;3.45;;;;;;;;;;4992717;28;20560;-76
2022/04/08 13:33:38;;;;;;;14.10;3.70;;;;;;;;;;4991118;28;20073;-76
2022/04/08 13:36:06;;;;;;;6.38;3.67;;;;;;;;;;4990113;28;20038;-79
2022/04/08 13:38:32;;;;;;;9.07;3.63;;;;;;;;;;4989641;28;20037;-79
2022/04/08 13:41:00;;;;;;;9.48;3.30;;;;;;;;;;4992147;28;20022;-77
2022/04/08 13:43:30;;;;;;;9.25;3.30;;;;;;;;;;4994637;28;20053;-75
2022/04/08 13:45:56;;;;;;;9.70;3.38;;;;;;;;;;4989331;28;20042;-77
2022/04/08 13:48:22;;;;;;;10.38;3.20;;;;;;;;;;4990667;28;20397;-79
2022/04/08 13:50:48;;;;;;;7.53;3.50;;;;;;;;;;4994479;28;20173;-78
2022/04/08 13:53:15;;;;;;;7.57;3.45;;;;;;;;;;4991442;28;20121;-76
2022/04/08 13:55:41;;;;;;;22.75;4.43;;;;;;;;;;4993852;28;20058;-77
2022/04/08 13:58:07;;;;;;;7.72;3.85;;;;;;;;;;4988091;28;20027;-82
2022/04/08 14:00:33;;;;;;;13.40;3.67;;;;;;;;;;4991939;28;20049;-83
2022/04/08 14:03:02;;;;;;;8.38;3.60;;;;;;;;;;4983040;28;20121;-71
2022/04/08 14:05:28;;;;;;;9.75;4.28;;;;;;;;;;5005278;28;20042;-72
2022/04/08 14:07:54;;;;;;;13.05;4.07;;;;;;;;;;4992835;28;20037;-75
2022/04/08 14:10:21;;;;;;;7.68;3.90;;;;;;;;;;4995905;28;20105;-71
2022/04/08 14:12:47;;;;;;;9.73;3.67;;;;;;;;;;4993173;28;20498;-79
2022/04/08 14:15:13;;;;;;;12.65;3.80;;;;;;;;;;4997042;28;20121;-79
2022/04/08 14:17:39;;;;;;;9.48;3.80;;;;;;;;;;4993760;28;20559;-73
2022/04/08 14:20:08;;;;;;;8.10;3.80;;;;;;;;;;4993210;28;20098;-73
2022/04/08 14:22:34;;;;;;;12.05;3.90;;;;;;;;;;4994191;28;20030;-73
2022/04/08 14:25:00;;;;;;;8.60;3.63;;;;;;;;;;4994259;28;20112;-75
2022/04/08 14:27:26;;;;;;;9.43;4.00;;;;;;;;;;4992871;28;20034;-77
2022/04/08 14:29:52;;;;;;;9.27;3.60;;;;;;;;;;4992986;28;20057;-74
2022/04/08 14:32:18;;;;;;;9.40;3.92;;;;;;;;;;4993057;28;20054;-75
2022/04/08 14:34:44;;;;;;;11.00;3.85;;;;;;;;;;4991287;28;20488;-73
2022/04/08 14:37:10;;;;;;;9.45;3.50;;;;;;;;;;4990908;28;20038;-79
2022/04/08 14:39:36;;;;;;;8.95;3.50;;;;;;;;;;4995628;28;20026;-75